createdAt,value
2019-04-30T00:04:06.092Z,99.90
2019-04-30T00:09:17.433Z,99.90
2019-04-30T00:14:15.952Z,99.90
2019-04-30T00:19:20.002Z,99.90
2019-04-30T00:24:25.850Z,99.90
2019-04-30T00:29:30.956Z,99.90
2019-04-30T00:34:37.907Z,99.90
2019-04-30T00:39:44.392Z,99.90
2019-04-30T00:44:46.058Z,99.90
2019-04-30T00:49:52.259Z,99.90
2019-04-30T00:54:55.385Z,99.90
2019-04-30T00:59:59.073Z,99.90
2019-04-30T01:05:06.018Z,99.90
2019-04-30T01:10:11.914Z,99.90
2019-04-30T01:15:15.833Z,99.90
2019-04-30T01:20:24.068Z,99.90
2019-04-30T01:25:25.904Z,99.90
2019-04-30T01:30:30.026Z,99.90
2019-04-30T01:35:33.687Z,99.90
2019-04-30T01:40:42.779Z,99.90
2019-04-30T01:45:44.501Z,99.90
2019-04-30T01:50:48.829Z,99.90
2019-04-30T01:56:09.131Z,99.90
2019-04-30T02:01:18.923Z,99.90
2019-04-30T02:06:22.987Z,99.90
2019-04-30T02:11:28.751Z,99.90
2019-04-30T02:16:32.250Z,99.90
2019-04-30T02:21:36.226Z,99.90
2019-04-30T02:26:40.144Z,99.90
2019-04-30T02:31:43.813Z,99.90
2019-04-30T02:37:09.543Z,99.90
2019-04-30T02:42:13.572Z,99.90
2019-04-30T02:47:20.533Z,99.90
2019-04-30T02:52:26.336Z,99.90
2019-04-30T02:57:30.102Z,99.90
2019-04-30T03:02:34.175Z,99.90
2019-04-30T03:07:40.495Z,99.90
2019-04-30T03:12:43.409Z,99.90
2019-04-30T03:17:56.922Z,99.90
2019-04-30T03:23:02.419Z,99.90
2019-04-30T03:28:06.306Z,99.90
2019-04-30T03:33:12.866Z,99.90
2019-04-30T03:38:15.456Z,99.90
2019-04-30T03:43:20.164Z,99.90
2019-04-30T03:48:23.950Z,99.90
2019-04-30T03:53:29.701Z,99.90
2019-04-30T03:58:33.011Z,99.90
2019-04-30T04:03:42.127Z,99.90
2019-04-30T04:08:54.079Z,99.90
2019-04-30T04:13:59.658Z,99.90
2019-04-30T04:19:03.177Z,99.90
2019-04-30T04:24:10.435Z,99.90
2019-04-30T04:29:13.052Z,99.90
2019-04-30T04:34:19.419Z,99.90
2019-04-30T04:39:22.130Z,99.90
2019-04-30T04:44:26.067Z,99.90
2019-04-30T04:49:30.554Z,99.90
2019-04-30T04:54:34.537Z,99.90
2019-04-30T04:59:39.380Z,99.90
2019-04-30T05:04:43.630Z,99.90
2019-04-30T05:09:48.951Z,99.90
2019-04-30T05:14:52.746Z,99.90
2019-04-30T05:19:58.553Z,99.90
2019-04-30T05:25:02.113Z,99.90
2019-04-30T05:30:06.549Z,99.90
2019-04-30T05:35:10.816Z,99.90
2019-04-30T05:40:14.736Z,99.90
2019-04-30T05:45:19.218Z,99.90
2019-04-30T05:50:23.229Z,99.90
2019-04-30T05:55:26.976Z,99.90
2019-04-30T06:00:31.158Z,99.90
2019-04-30T06:05:34.877Z,99.90
2019-04-30T06:10:51.778Z,99.90
2019-04-30T06:15:58.845Z,99.90
2019-04-30T06:21:02.687Z,99.90
2019-04-30T06:26:09.564Z,99.90
2019-04-30T06:31:32.178Z,99.90
2019-04-30T06:36:29.376Z,99.90
2019-04-30T06:41:33.155Z,99.90
2019-04-30T06:46:38.657Z,99.90
2019-04-30T06:51:42.553Z,99.90
2019-04-30T06:56:46.218Z,99.90
2019-04-30T07:01:50.037Z,99.90
2019-04-30T07:06:54.053Z,99.90
2019-04-30T07:12:09.168Z,99.90
2019-04-30T07:17:12.867Z,99.90
2019-04-30T07:22:16.615Z,99.90
2019-04-30T07:27:24.006Z,99.90
2019-04-30T07:32:25.746Z,99.90
2019-04-30T07:37:29.593Z,99.90
2019-04-30T07:42:38.218Z,99.90
2019-04-30T07:47:39.587Z,99.90
2019-04-30T07:52:58.971Z,99.90
2019-04-30T07:57:50.615Z,99.90
2019-04-30T08:03:11.203Z,99.90
2019-04-30T08:08:21.658Z,99.90
2019-04-30T08:13:22.054Z,99.90
2019-04-30T08:18:29.516Z,99.90
2019-04-30T08:23:36.980Z,99.90
2019-04-30T08:28:38.800Z,98.80
2019-04-30T08:33:42.509Z,99.00
2019-04-30T08:38:46.211Z,99.00
2019-04-30T08:43:49.911Z,98.80
2019-04-30T08:48:53.832Z,97.50
2019-04-30T08:53:58.648Z,96.00
2019-04-30T08:59:02.555Z,94.30
2019-04-30T09:04:07.728Z,90.60
2019-04-30T09:09:18.743Z,86.70
2019-04-30T09:14:22.652Z,79.30
2019-04-30T09:19:26.323Z,66.30
2019-04-30T09:24:31.033Z,61.00
2019-04-30T09:29:34.877Z,65.90
2019-04-30T09:34:40.423Z,60.00
2019-04-30T09:39:44.229Z,60.30
2019-04-30T09:44:49.191Z,57.00
2019-04-30T09:49:53.130Z,53.30
2019-04-30T09:54:56.917Z,49.90
2019-04-30T10:00:00.693Z,45.60
2019-04-30T10:05:05.378Z,45.40
2019-04-30T10:10:11.915Z,43.30
2019-04-30T10:15:28.959Z,40.60
2019-04-30T10:20:40.727Z,37.80
2019-04-30T10:25:44.479Z,38.60
2019-04-30T10:30:48.429Z,38.60
2019-04-30T10:35:52.161Z,37.70
2019-04-30T10:40:56.080Z,37.30
2019-04-30T10:45:59.880Z,36.80
2019-04-30T10:51:03.783Z,40.00
2019-04-30T10:56:09.596Z,42.10
2019-04-30T11:01:12.944Z,45.70
2019-04-30T11:06:16.695Z,44.90
2019-04-30T11:11:20.613Z,42.90
2019-04-30T11:16:24.578Z,44.40
2019-04-30T11:21:29.568Z,41.50
2019-04-30T11:26:34.317Z,36.60
2019-04-30T11:32:03.612Z,34.90
2019-04-30T11:37:07.606Z,36.80
2019-04-30T11:42:11.530Z,34.20
2019-04-30T11:47:34.456Z,35.80
2019-04-30T11:52:38.457Z,33.70
2019-04-30T11:57:42.227Z,33.60
2019-04-30T12:02:46.101Z,33.70
2019-04-30T12:08:01.735Z,34.60
2019-04-30T12:13:23.187Z,36.80
2019-04-30T12:18:26.998Z,37.70
2019-04-30T12:23:30.915Z,35.00
2019-04-30T12:28:34.589Z,35.10
2019-04-30T12:33:38.437Z,36.80
2019-04-30T12:38:42.145Z,35.50
2019-04-30T12:43:46.130Z,35.10
2019-04-30T12:48:59.576Z,33.40
2019-04-30T12:54:24.777Z,36.80
2019-04-30T12:59:28.437Z,37.70
2019-04-30T13:04:32.115Z,37.10
2019-04-30T13:09:36.294Z,34.60
2019-04-30T13:14:51.700Z,34.90
2019-04-30T13:19:45.785Z,34.80
2019-04-30T13:24:49.976Z,34.10
2019-04-30T13:30:13.819Z,35.10
2019-04-30T13:35:19.065Z,36.80
2019-04-30T13:40:33.319Z,37.30
2019-04-30T13:45:38.816Z,37.50
2019-04-30T13:50:42.567Z,37.20
2019-04-30T13:55:46.273Z,34.60
2019-04-30T14:00:49.972Z,33.10
2019-04-30T14:05:53.941Z,35.50
2019-04-30T14:10:59.185Z,36.10
2019-04-30T14:16:03.305Z,35.50
2019-04-30T14:21:09.203Z,35.30
2019-04-30T14:26:12.765Z,35.00
2019-04-30T14:31:16.714Z,35.70
2019-04-30T14:36:22.412Z,36.20
2019-04-30T14:41:26.664Z,37.20
2019-04-30T14:46:47.251Z,38.70
2019-04-30T14:51:51.431Z,40.10
2019-04-30T14:56:59.716Z,40.00
2019-04-30T15:02:12.443Z,38.90
2019-04-30T15:07:16.840Z,37.90
2019-04-30T15:12:20.719Z,38.40
2019-04-30T15:17:24.693Z,37.70
2019-04-30T15:22:29.064Z,40.30
2019-04-30T15:27:32.849Z,39.80
2019-04-30T15:32:39.652Z,39.60
2019-04-30T15:37:45.038Z,39.10
2019-04-30T15:42:50.617Z,38.90
2019-04-30T15:47:54.346Z,38.70
2019-04-30T15:52:58.567Z,40.00
2019-04-30T15:58:17.971Z,39.40
2019-04-30T16:03:25.759Z,39.00
2019-04-30T16:08:39.041Z,40.00
2019-04-30T16:14:19.911Z,40.70
2019-04-30T16:19:23.650Z,42.00
2019-04-30T16:24:28.714Z,42.80
2019-04-30T16:29:32.597Z,42.50
2019-04-30T16:34:36.291Z,42.50
2019-04-30T16:39:40.273Z,41.50
2019-04-30T16:44:43.969Z,41.70
2019-04-30T16:49:49.249Z,42.60
2019-04-30T16:54:53.428Z,43.30
2019-04-30T16:59:59.268Z,46.00
2019-04-30T17:05:14.114Z,45.20
2019-04-30T17:10:25.023Z,45.20
2019-04-30T17:15:29.614Z,46.40
2019-04-30T17:20:33.611Z,47.90
2019-04-30T17:25:37.534Z,49.40
2019-04-30T17:30:41.285Z,50.50
2019-04-30T17:35:45.057Z,52.30
2019-04-30T17:40:49.755Z,52.70
2019-04-30T17:45:53.916Z,53.30
2019-04-30T17:50:59.406Z,54.30
2019-04-30T17:56:03.090Z,54.70
2019-04-30T18:01:15.132Z,54.80
2019-04-30T18:06:19.225Z,55.30
2019-04-30T18:11:24.631Z,55.80
2019-04-30T18:16:28.718Z,56.70
2019-04-30T18:21:36.329Z,57.60
2019-04-30T18:26:47.114Z,58.30
2019-04-30T18:31:53.679Z,60.20
2019-04-30T18:36:59.349Z,61.10
2019-04-30T18:42:03.183Z,61.90
2019-04-30T18:47:08.926Z,62.30
2019-04-30T18:52:12.428Z,63.50
2019-04-30T18:57:16.313Z,65.60
2019-04-30T19:02:20.310Z,66.10
2019-04-30T19:07:32.475Z,66.50
2019-04-30T19:12:48.935Z,68.80
2019-04-30T19:18:02.203Z,70.40
2019-04-30T19:23:06.035Z,75.50
2019-04-30T19:28:14.310Z,81.60
2019-04-30T19:33:16.553Z,85.60
2019-04-30T19:38:20.294Z,90.60
2019-04-30T19:43:23.989Z,91.40
2019-04-30T19:48:27.715Z,92.40
2019-04-30T19:53:31.413Z,93.00
2019-04-30T19:58:50.064Z,93.70
2019-04-30T20:03:40.892Z,94.40
2019-04-30T20:08:44.629Z,94.80
2019-04-30T20:13:48.946Z,95.40
2019-04-30T20:18:52.802Z,95.50
2019-04-30T20:23:56.527Z,96.20
2019-04-30T20:29:00.242Z,97.10
2019-04-30T20:34:04.247Z,98.10
2019-04-30T20:39:23.714Z,98.50
2019-04-30T20:44:29.049Z,99.00
2019-04-30T20:49:33.149Z,99.90
2019-04-30T20:54:38.899Z,99.90
2019-04-30T20:59:42.310Z,99.90
2019-04-30T21:04:46.011Z,99.90
2019-04-30T21:10:16.914Z,99.90
2019-04-30T21:15:20.828Z,99.90
2019-04-30T21:20:24.645Z,99.90
2019-04-30T21:25:29.128Z,99.90
2019-04-30T21:30:33.086Z,99.90
2019-04-30T21:35:40.234Z,99.90
2019-04-30T21:40:49.209Z,99.90
2019-04-30T21:45:53.122Z,99.90
2019-04-30T21:50:59.471Z,99.90
2019-04-30T21:56:03.396Z,99.90
2019-04-30T22:01:18.516Z,99.90
2019-04-30T22:06:22.914Z,99.90
2019-04-30T22:11:26.658Z,99.90
2019-04-30T22:16:30.657Z,99.90
2019-04-30T22:21:34.559Z,99.90
2019-04-30T22:26:38.301Z,99.90
2019-04-30T22:31:42.071Z,99.90
2019-04-30T22:36:49.511Z,99.90
2019-04-30T22:42:00.955Z,99.90
2019-04-30T22:47:04.897Z,99.90
2019-04-30T22:52:08.598Z,99.90
2019-04-30T22:57:12.351Z,99.90
2019-04-30T23:02:24.601Z,99.90
2019-04-30T23:07:28.334Z,99.90
2019-04-30T23:12:32.002Z,99.90
2019-04-30T23:17:35.719Z,99.90
2019-04-30T23:22:39.487Z,99.90
2019-04-30T23:27:43.220Z,99.90
2019-04-30T23:32:47.193Z,99.90
2019-04-30T23:37:51.115Z,99.90
2019-04-30T23:42:55.042Z,99.90
2019-04-30T23:47:58.917Z,99.90
2019-04-30T23:53:02.663Z,99.90
2019-04-30T23:58:06.806Z,99.90
